sensor_id;sensor_type;location;lat;lon;timestamp;P1;durP1;ratioP1;P2;durP2;ratioP2
24273;SDS011;12392;42.678;23.380;2022-08-19T00:00:26;8.98;;;6.13;;
24273;SDS011;12392;42.678;23.380;2022-08-19T00:02:52;9.80;;;6.57;;
24273;SDS011;12392;42.678;23.380;2022-08-19T00:05:19;11.45;;;5.68;;
24273;SDS011;12392;42.678;23.380;2022-08-19T00:07:45;10.40;;;6.60;;
24273;SDS011;12392;42.678;23.380;2022-08-19T00:10:12;6.32;;;5.15;;
24273;SDS011;12392;42.678;23.380;2022-08-19T00:12:39;10.18;;;5.85;;
24273;SDS011;12392;42.678;23.380;2022-08-19T00:15:06;8.32;;;5.88;;
24273;SDS011;12392;42.678;23.380;2022-08-19T00:17:36;10.05;;;5.90;;
24273;SDS011;12392;42.678;23.380;2022-08-19T00:20:03;10.68;;;6.07;;
24273;SDS011;12392;42.678;23.380;2022-08-19T00:22:30;8.18;;;6.18;;
24273;SDS011;12392;42.678;23.380;2022-08-19T00:24:56;10.35;;;6.65;;
24273;SDS011;12392;42.678;23.380;2022-08-19T00:27:22;13.38;;;5.70;;
24273;SDS011;12392;42.678;23.380;2022-08-19T00:29:48;8.35;;;5.80;;
24273;SDS011;12392;42.678;23.380;2022-08-19T00:32:14;8.50;;;5.72;;
24273;SDS011;12392;42.678;23.380;2022-08-19T00:34:40;12.13;;;6.10;;
24273;SDS011;12392;42.678;23.380;2022-08-19T00:37:05;9.27;;;6.00;;
24273;SDS011;12392;42.678;23.380;2022-08-19T00:39:31;9.57;;;6.03;;
24273;SDS011;12392;42.678;23.380;2022-08-19T00:41:57;10.60;;;6.55;;
24273;SDS011;12392;42.678;23.380;2022-08-19T00:44:24;10.23;;;6.57;;
24273;SDS011;12392;42.678;23.380;2022-08-19T00:46:52;9.85;;;6.35;;
24273;SDS011;12392;42.678;23.380;2022-08-19T00:49:24;8.93;;;6.68;;
24273;SDS011;12392;42.678;23.380;2022-08-19T00:51:55;9.77;;;6.90;;
24273;SDS011;12392;42.678;23.380;2022-08-19T00:54:29;10.88;;;7.43;;
24273;SDS011;12392;42.678;23.380;2022-08-19T00:56:56;14.63;;;7.15;;
24273;SDS011;12392;42.678;23.380;2022-08-19T00:59:23;10.73;;;7.07;;
24273;SDS011;12392;42.678;23.380;2022-08-19T01:01:48;11.52;;;6.65;;
24273;SDS011;12392;42.678;23.380;2022-08-19T01:04:14;12.95;;;7.00;;
24273;SDS011;12392;42.678;23.380;2022-08-19T01:06:40;13.10;;;6.80;;
24273;SDS011;12392;42.678;23.380;2022-08-19T01:09:06;9.13;;;7.00;;
24273;SDS011;12392;42.678;23.380;2022-08-19T01:11:33;16.00;;;6.88;;
24273;SDS011;12392;42.678;23.380;2022-08-19T01:14:00;9.25;;;6.45;;
24273;SDS011;12392;42.678;23.380;2022-08-19T01:16:27;8.48;;;6.22;;
24273;SDS011;12392;42.678;23.380;2022-08-19T01:18:53;9.15;;;6.00;;
24273;SDS011;12392;42.678;23.380;2022-08-19T01:23:50;10.80;;;6.80;;
24273;SDS011;12392;42.678;23.380;2022-08-19T01:26:18;7.65;;;6.18;;
24273;SDS011;12392;42.678;23.380;2022-08-19T01:28:46;10.85;;;6.72;;
24273;SDS011;12392;42.678;23.380;2022-08-19T01:31:19;9.55;;;7.05;;
24273;SDS011;12392;42.678;23.380;2022-08-19T01:33:47;9.65;;;6.60;;
24273;SDS011;12392;42.678;23.380;2022-08-19T01:36:15;11.18;;;6.47;;
24273;SDS011;12392;42.678;23.380;2022-08-19T01:38:47;10.98;;;7.28;;
24273;SDS011;12392;42.678;23.380;2022-08-19T01:41:14;8.70;;;6.68;;
24273;SDS011;12392;42.678;23.380;2022-08-19T01:43:40;10.48;;;6.85;;
24273;SDS011;12392;42.678;23.380;2022-08-19T01:46:06;9.38;;;6.75;;
24273;SDS011;12392;42.678;23.380;2022-08-19T01:48:39;9.20;;;7.45;;
24273;SDS011;12392;42.678;23.380;2022-08-19T01:51:06;11.18;;;7.35;;
24273;SDS011;12392;42.678;23.380;2022-08-19T01:53:34;15.68;;;7.15;;
24273;SDS011;12392;42.678;23.380;2022-08-19T01:56:01;9.45;;;7.50;;
24273;SDS011;12392;42.678;23.380;2022-08-19T01:58:29;10.35;;;7.00;;
24273;SDS011;12392;42.678;23.380;2022-08-19T02:00:57;8.43;;;6.85;;
24273;SDS011;12392;42.678;23.380;2022-08-19T02:03:23;9.55;;;6.65;;
24273;SDS011;12392;42.678;23.380;2022-08-19T02:05:53;7.75;;;6.93;;
24273;SDS011;12392;42.678;23.380;2022-08-19T02:08:20;11.50;;;6.90;;
24273;SDS011;12392;42.678;23.380;2022-08-19T02:10:46;13.57;;;6.63;;
24273;SDS011;12392;42.678;23.380;2022-08-19T02:13:13;9.57;;;6.40;;
24273;SDS011;12392;42.678;23.380;2022-08-19T02:15:39;8.43;;;6.60;;
24273;SDS011;12392;42.678;23.380;2022-08-19T02:18:05;9.13;;;6.38;;
24273;SDS011;12392;42.678;23.380;2022-08-19T02:20:32;10.57;;;6.53;;
24273;SDS011;12392;42.678;23.380;2022-08-19T02:22:58;7.82;;;6.38;;
24273;SDS011;12392;42.678;23.380;2022-08-19T02:25:26;8.05;;;6.15;;
24273;SDS011;12392;42.678;23.380;2022-08-19T02:27:52;8.73;;;6.90;;
24273;SDS011;12392;42.678;23.380;2022-08-19T02:30:19;11.43;;;7.15;;
24273;SDS011;12392;42.678;23.380;2022-08-19T02:32:45;8.65;;;6.60;;
24273;SDS011;12392;42.678;23.380;2022-08-19T02:35:14;9.88;;;6.68;;
24273;SDS011;12392;42.678;23.380;2022-08-19T02:37:40;11.10;;;6.57;;
24273;SDS011;12392;42.678;23.380;2022-08-19T02:40:25;10.10;;;7.40;;
24273;SDS011;12392;42.678;23.380;2022-08-19T02:42:52;17.27;;;9.13;;
24273;SDS011;12392;42.678;23.380;2022-08-19T02:45:18;24.10;;;11.93;;
24273;SDS011;12392;42.678;23.380;2022-08-19T02:47:43;20.60;;;10.57;;
24273;SDS011;12392;42.678;23.380;2022-08-19T02:50:09;16.98;;;10.70;;
24273;SDS011;12392;42.678;23.380;2022-08-19T02:52:35;17.70;;;9.68;;
24273;SDS011;12392;42.678;23.380;2022-08-19T02:55:01;22.52;;;11.63;;
24273;SDS011;12392;42.678;23.380;2022-08-19T02:57:27;22.20;;;10.15;;
24273;SDS011;12392;42.678;23.380;2022-08-19T02:59:56;21.13;;;12.43;;
24273;SDS011;12392;42.678;23.380;2022-08-19T03:02:22;17.50;;;10.85;;
24273;SDS011;12392;42.678;23.380;2022-08-19T03:04:48;19.92;;;11.95;;
24273;SDS011;12392;42.678;23.380;2022-08-19T03:07:14;32.17;;;11.30;;
24273;SDS011;12392;42.678;23.380;2022-08-19T03:09:40;23.80;;;10.13;;
24273;SDS011;12392;42.678;23.380;2022-08-19T03:12:07;20.05;;;9.75;;
24273;SDS011;12392;42.678;23.380;2022-08-19T03:14:33;22.50;;;11.07;;
24273;SDS011;12392;42.678;23.380;2022-08-19T03:17:00;20.08;;;10.80;;
24273;SDS011;12392;42.678;23.380;2022-08-19T03:19:26;18.35;;;11.60;;
24273;SDS011;12392;42.678;23.380;2022-08-19T03:21:52;17.15;;;10.40;;
24273;SDS011;12392;42.678;23.380;2022-08-19T03:24:18;24.40;;;10.50;;
24273;SDS011;12392;42.678;23.380;2022-08-19T03:26:49;21.33;;;10.20;;
24273;SDS011;12392;42.678;23.380;2022-08-19T03:29:17;19.73;;;9.88;;
24273;SDS011;12392;42.678;23.380;2022-08-19T03:31:43;16.95;;;9.65;;
24273;SDS011;12392;42.678;23.380;2022-08-19T03:34:10;12.23;;;8.32;;
24273;SDS011;12392;42.678;23.380;2022-08-19T03:36:37;21.90;;;8.43;;
24273;SDS011;12392;42.678;23.380;2022-08-19T03:39:03;9.13;;;7.05;;
24273;SDS011;12392;42.678;23.380;2022-08-19T03:41:35;19.88;;;9.55;;
24273;SDS011;12392;42.678;23.380;2022-08-19T03:44:03;22.17;;;9.52;;
24273;SDS011;12392;42.678;23.380;2022-08-19T03:46:30;20.65;;;9.70;;
24273;SDS011;12392;42.678;23.380;2022-08-19T03:48:57;27.17;;;12.32;;
24273;SDS011;12392;42.678;23.380;2022-08-19T03:51:27;19.02;;;8.48;;
24273;SDS011;12392;42.678;23.380;2022-08-19T03:53:58;21.80;;;8.97;;
24273;SDS011;12392;42.678;23.380;2022-08-19T03:56:25;23.23;;;10.25;;
24273;SDS011;12392;42.678;23.380;2022-08-19T03:58:53;23.95;;;9.70;;
24273;SDS011;12392;42.678;23.380;2022-08-19T04:01:19;31.10;;;11.30;;
24273;SDS011;12392;42.678;23.380;2022-08-19T04:03:46;39.85;;;11.85;;
24273;SDS011;12392;42.678;23.380;2022-08-19T04:06:14;17.30;;;9.38;;
24273;SDS011;12392;42.678;23.380;2022-08-19T04:08:59;14.68;;;9.13;;
24273;SDS011;12392;42.678;23.380;2022-08-19T04:11:28;11.63;;;9.32;;
24273;SDS011;12392;42.678;23.380;2022-08-19T04:13:55;14.50;;;9.45;;
24273;SDS011;12392;42.678;23.380;2022-08-19T04:16:25;20.65;;;10.15;;
24273;SDS011;12392;42.678;23.380;2022-08-19T04:18:55;16.58;;;10.13;;
24273;SDS011;12392;42.678;23.380;2022-08-19T04:21:23;21.55;;;12.02;;
24273;SDS011;12392;42.678;23.380;2022-08-19T04:23:50;18.90;;;11.40;;
24273;SDS011;12392;42.678;23.380;2022-08-19T04:26:26;25.15;;;10.95;;
24273;SDS011;12392;42.678;23.380;2022-08-19T04:28:53;15.27;;;9.77;;
24273;SDS011;12392;42.678;23.380;2022-08-19T04:31:24;13.73;;;9.82;;
24273;SDS011;12392;42.678;23.380;2022-08-19T04:33:55;12.50;;;10.03;;
24273;SDS011;12392;42.678;23.380;2022-08-19T04:36:25;16.25;;;11.27;;
24273;SDS011;12392;42.678;23.380;2022-08-19T04:38:53;21.00;;;10.25;;
24273;SDS011;12392;42.678;23.380;2022-08-19T04:41:21;17.73;;;9.80;;
24273;SDS011;12392;42.678;23.380;2022-08-19T04:44:05;13.57;;;9.00;;
24273;SDS011;12392;42.678;23.380;2022-08-19T04:46:32;15.77;;;9.20;;
24273;SDS011;12392;42.678;23.380;2022-08-19T04:48:58;12.73;;;8.43;;
24273;SDS011;12392;42.678;23.380;2022-08-19T04:51:24;16.38;;;7.82;;
24273;SDS011;12392;42.678;23.380;2022-08-19T04:53:50;13.45;;;7.80;;
24273;SDS011;12392;42.678;23.380;2022-08-19T04:56:17;9.93;;;7.25;;
24273;SDS011;12392;42.678;23.380;2022-08-19T04:58:49;11.30;;;7.88;;
24273;SDS011;12392;42.678;23.380;2022-08-19T05:01:21;9.70;;;7.47;;
24273;SDS011;12392;42.678;23.380;2022-08-19T05:03:53;11.98;;;7.43;;
24273;SDS011;12392;42.678;23.380;2022-08-19T05:06:19;10.52;;;6.88;;
24273;SDS011;12392;42.678;23.380;2022-08-19T05:08:46;11.23;;;6.38;;
24273;SDS011;12392;42.678;23.380;2022-08-19T05:11:14;12.90;;;6.82;;
24273;SDS011;12392;42.678;23.380;2022-08-19T05:13:46;8.50;;;6.57;;
24273;SDS011;12392;42.678;23.380;2022-08-19T05:16:14;12.80;;;6.80;;
24273;SDS011;12392;42.678;23.380;2022-08-19T05:18:42;10.85;;;7.20;;
24273;SDS011;12392;42.678;23.380;2022-08-19T05:21:27;8.95;;;7.05;;
24273;SDS011;12392;42.678;23.380;2022-08-19T05:24:12;8.57;;;7.10;;
24273;SDS011;12392;42.678;23.380;2022-08-19T05:26:40;12.15;;;7.57;;
24273;SDS011;12392;42.678;23.380;2022-08-19T05:29:10;22.20;;;7.97;;
24273;SDS011;12392;42.678;23.380;2022-08-19T05:31:36;13.82;;;7.32;;
24273;SDS011;12392;42.678;23.380;2022-08-19T05:34:03;13.95;;;7.63;;
24273;SDS011;12392;42.678;23.380;2022-08-19T05:36:33;13.77;;;8.15;;
24273;SDS011;12392;42.678;23.380;2022-08-19T05:39:00;15.20;;;8.27;;
24273;SDS011;12392;42.678;23.380;2022-08-19T05:41:27;15.15;;;7.38;;
24273;SDS011;12392;42.678;23.380;2022-08-19T05:43:56;15.43;;;7.78;;
24273;SDS011;12392;42.678;23.380;2022-08-19T05:46:21;11.27;;;8.13;;
24273;SDS011;12392;42.678;23.380;2022-08-19T05:48:48;11.18;;;7.70;;
24273;SDS011;12392;42.678;23.380;2022-08-19T05:51:14;12.85;;;7.68;;
24273;SDS011;12392;42.678;23.380;2022-08-19T05:53:41;15.45;;;7.07;;
24273;SDS011;12392;42.678;23.380;2022-08-19T05:56:08;10.07;;;7.53;;
24273;SDS011;12392;42.678;23.380;2022-08-19T05:58:36;10.50;;;7.82;;
24273;SDS011;12392;42.678;23.380;2022-08-19T06:01:02;12.10;;;7.10;;
24273;SDS011;12392;42.678;23.380;2022-08-19T06:03:31;10.70;;;7.03;;
24273;SDS011;12392;42.678;23.380;2022-08-19T06:05:58;13.77;;;7.53;;
24273;SDS011;12392;42.678;23.380;2022-08-19T06:08:25;15.57;;;7.25;;
24273;SDS011;12392;42.678;23.380;2022-08-19T06:10:52;10.80;;;7.35;;
24273;SDS011;12392;42.678;23.380;2022-08-19T06:13:18;9.52;;;7.60;;
24273;SDS011;12392;42.678;23.380;2022-08-19T06:15:44;10.80;;;7.82;;
24273;SDS011;12392;42.678;23.380;2022-08-19T06:18:11;12.35;;;7.55;;
24273;SDS011;12392;42.678;23.380;2022-08-19T06:20:37;10.95;;;7.38;;
24273;SDS011;12392;42.678;23.380;2022-08-19T06:23:03;11.63;;;7.13;;
24273;SDS011;12392;42.678;23.380;2022-08-19T06:25:29;9.20;;;6.90;;
24273;SDS011;12392;42.678;23.380;2022-08-19T06:27:55;15.20;;;7.80;;
24273;SDS011;12392;42.678;23.380;2022-08-19T06:30:21;11.75;;;6.97;;
24273;SDS011;12392;42.678;23.380;2022-08-19T06:32:47;14.63;;;7.72;;
24273;SDS011;12392;42.678;23.380;2022-08-19T06:35:12;10.63;;;6.55;;
24273;SDS011;12392;42.678;23.380;2022-08-19T06:37:39;15.88;;;7.40;;
24273;SDS011;12392;42.678;23.380;2022-08-19T06:40:05;16.13;;;6.97;;
24273;SDS011;12392;42.678;23.380;2022-08-19T06:42:33;16.30;;;6.80;;
24273;SDS011;12392;42.678;23.380;2022-08-19T06:44:59;14.35;;;7.03;;
24273;SDS011;12392;42.678;23.380;2022-08-19T06:47:28;10.63;;;6.60;;
24273;SDS011;12392;42.678;23.380;2022-08-19T06:49:58;15.02;;;7.32;;
24273;SDS011;12392;42.678;23.380;2022-08-19T06:52:31;13.75;;;7.63;;
24273;SDS011;12392;42.678;23.380;2022-08-19T06:54:58;13.85;;;7.40;;
24273;SDS011;12392;42.678;23.380;2022-08-19T06:57:25;14.65;;;6.72;;
24273;SDS011;12392;42.678;23.380;2022-08-19T06:59:51;14.23;;;7.13;;
24273;SDS011;12392;42.678;23.380;2022-08-19T07:02:18;15.73;;;6.32;;
24273;SDS011;12392;42.678;23.380;2022-08-19T07:04:44;14.82;;;6.63;;
24273;SDS011;12392;42.678;23.380;2022-08-19T07:07:11;17.10;;;6.40;;
24273;SDS011;12392;42.678;23.380;2022-08-19T07:09:40;12.85;;;7.32;;
24273;SDS011;12392;42.678;23.380;2022-08-19T07:12:08;17.67;;;6.72;;
24273;SDS011;12392;42.678;23.380;2022-08-19T07:14:35;10.35;;;7.18;;
24273;SDS011;12392;42.678;23.380;2022-08-19T07:17:06;18.20;;;6.90;;
24273;SDS011;12392;42.678;23.380;2022-08-19T07:19:35;21.05;;;7.32;;
24273;SDS011;12392;42.678;23.380;2022-08-19T07:22:02;13.38;;;6.70;;
24273;SDS011;12392;42.678;23.380;2022-08-19T07:24:29;9.82;;;7.28;;
24273;SDS011;12392;42.678;23.380;2022-08-19T07:26:56;10.93;;;6.68;;
24273;SDS011;12392;42.678;23.380;2022-08-19T07:29:25;8.75;;;6.35;;
24273;SDS011;12392;42.678;23.380;2022-08-19T07:31:52;13.20;;;6.45;;
24273;SDS011;12392;42.678;23.380;2022-08-19T07:34:21;12.50;;;6.50;;
24273;SDS011;12392;42.678;23.380;2022-08-19T07:36:48;10.70;;;6.25;;
24273;SDS011;12392;42.678;23.380;2022-08-19T07:39:19;13.30;;;6.32;;
24273;SDS011;12392;42.678;23.380;2022-08-19T07:41:47;13.77;;;6.18;;
24273;SDS011;12392;42.678;23.380;2022-08-19T07:44:13;16.77;;;7.22;;
24273;SDS011;12392;42.678;23.380;2022-08-19T07:46:42;10.63;;;6.57;;
24273;SDS011;12392;42.678;23.380;2022-08-19T07:49:10;13.90;;;6.57;;
24273;SDS011;12392;42.678;23.380;2022-08-19T07:51:42;10.77;;;6.88;;
24273;SDS011;12392;42.678;23.380;2022-08-19T07:54:08;21.70;;;6.80;;
24273;SDS011;12392;42.678;23.380;2022-08-19T07:56:34;14.05;;;5.78;;
24273;SDS011;12392;42.678;23.380;2022-08-19T07:59:00;17.83;;;6.30;;
24273;SDS011;12392;42.678;23.380;2022-08-19T08:01:26;16.02;;;7.05;;
24273;SDS011;12392;42.678;23.380;2022-08-19T08:03:53;11.40;;;6.68;;
24273;SDS011;12392;42.678;23.380;2022-08-19T08:06:39;17.45;;;6.75;;
24273;SDS011;12392;42.678;23.380;2022-08-19T08:09:25;11.30;;;6.60;;
24273;SDS011;12392;42.678;23.380;2022-08-19T08:11:57;13.30;;;6.63;;
24273;SDS011;12392;42.678;23.380;2022-08-19T08:14:35;13.20;;;6.18;;
24273;SDS011;12392;42.678;23.380;2022-08-19T08:17:04;11.57;;;6.70;;
24273;SDS011;12392;42.678;23.380;2022-08-19T08:19:30;16.85;;;6.95;;
24273;SDS011;12392;42.678;23.380;2022-08-19T08:21:57;11.68;;;6.93;;
24273;SDS011;12392;42.678;23.380;2022-08-19T08:24:24;10.32;;;6.60;;
24273;SDS011;12392;42.678;23.380;2022-08-19T08:26:51;15.93;;;6.75;;
24273;SDS011;12392;42.678;23.380;2022-08-19T08:29:18;16.58;;;6.95;;
24273;SDS011;12392;42.678;23.380;2022-08-19T08:31:44;18.50;;;6.95;;
24273;SDS011;12392;42.678;23.380;2022-08-19T08:34:11;18.25;;;7.22;;
24273;SDS011;12392;42.678;23.380;2022-08-19T08:36:39;11.60;;;6.80;;
24273;SDS011;12392;42.678;23.380;2022-08-19T08:39:08;13.73;;;6.80;;
24273;SDS011;12392;42.678;23.380;2022-08-19T08:41:41;16.20;;;6.30;;
24273;SDS011;12392;42.678;23.380;2022-08-19T08:44:22;12.38;;;6.10;;
24273;SDS011;12392;42.678;23.380;2022-08-19T08:47:05;12.95;;;6.63;;
24273;SDS011;12392;42.678;23.380;2022-08-19T08:52:20;15.80;;;5.82;;
24273;SDS011;12392;42.678;23.380;2022-08-19T08:54:48;9.77;;;6.05;;
24273;SDS011;12392;42.678;23.380;2022-08-19T09:00:05;8.93;;;5.75;;
24273;SDS011;12392;42.678;23.380;2022-08-19T09:02:32;13.18;;;5.90;;
24273;SDS011;12392;42.678;23.380;2022-08-19T09:04:59;9.30;;;5.90;;
24273;SDS011;12392;42.678;23.380;2022-08-19T09:10:02;11.60;;;6.15;;
24273;SDS011;12392;42.678;23.380;2022-08-19T09:12:53;11.68;;;5.43;;
24273;SDS011;12392;42.678;23.380;2022-08-19T09:15:28;8.63;;;5.43;;
24273;SDS011;12392;42.678;23.380;2022-08-19T09:18:04;19.08;;;5.35;;
24273;SDS011;12392;42.678;23.380;2022-08-19T09:20:30;15.27;;;5.80;;
24273;SDS011;12392;42.678;23.380;2022-08-19T09:22:56;5.53;;;4.97;;
24273;SDS011;12392;42.678;23.380;2022-08-19T09:25:23;6.70;;;4.50;;
24273;SDS011;12392;42.678;23.380;2022-08-19T09:27:50;17.08;;;4.70;;
24273;SDS011;12392;42.678;23.380;2022-08-19T09:30:25;5.38;;;3.83;;
24273;SDS011;12392;42.678;23.380;2022-08-19T09:32:53;6.95;;;3.90;;
24273;SDS011;12392;42.678;23.380;2022-08-19T09:35:22;7.93;;;4.60;;
24273;SDS011;12392;42.678;23.380;2022-08-19T09:37:49;6.63;;;4.50;;
24273;SDS011;12392;42.678;23.380;2022-08-19T09:40:16;9.70;;;4.20;;
24273;SDS011;12392;42.678;23.380;2022-08-19T09:42:45;7.28;;;5.22;;
24273;SDS011;12392;42.678;23.380;2022-08-19T09:45:14;7.78;;;4.57;;
24273;SDS011;12392;42.678;23.380;2022-08-19T09:47:42;7.72;;;4.78;;
24273;SDS011;12392;42.678;23.380;2022-08-19T09:50:09;11.20;;;4.18;;
24273;SDS011;12392;42.678;23.380;2022-08-19T09:52:36;4.28;;;3.85;;
24273;SDS011;12392;42.678;23.380;2022-08-19T09:55:08;8.38;;;3.97;;
24273;SDS011;12392;42.678;23.380;2022-08-19T09:57:35;6.63;;;3.58;;
24273;SDS011;12392;42.678;23.380;2022-08-19T10:00:01;8.15;;;4.22;;
24273;SDS011;12392;42.678;23.380;2022-08-19T10:02:31;6.70;;;4.10;;
24273;SDS011;12392;42.678;23.380;2022-08-19T10:04:56;4.53;;;3.50;;
24273;SDS011;12392;42.678;23.380;2022-08-19T10:07:41;5.78;;;3.97;;
24273;SDS011;12392;42.678;23.380;2022-08-19T10:10:06;10.20;;;4.22;;
24273;SDS011;12392;42.678;23.380;2022-08-19T10:12:34;4.32;;;3.67;;
24273;SDS011;12392;42.678;23.380;2022-08-19T10:15:00;9.55;;;4.25;;
24273;SDS011;12392;42.678;23.380;2022-08-19T10:17:26;6.32;;;4.18;;
24273;SDS011;12392;42.678;23.380;2022-08-19T10:19:52;4.30;;;3.80;;
24273;SDS011;12392;42.678;23.380;2022-08-19T10:22:18;9.00;;;4.43;;
24273;SDS011;12392;42.678;23.380;2022-08-19T10:24:47;6.70;;;4.05;;
24273;SDS011;12392;42.678;23.380;2022-08-19T10:27:14;4.22;;;3.78;;
24273;SDS011;12392;42.678;23.380;2022-08-19T10:29:40;6.78;;;4.57;;
24273;SDS011;12392;42.678;23.380;2022-08-19T10:32:07;6.70;;;4.50;;
24273;SDS011;12392;42.678;23.380;2022-08-19T10:34:34;4.63;;;3.83;;
24273;SDS011;12392;42.678;23.380;2022-08-19T10:37:01;5.25;;;4.50;;
24273;SDS011;12392;42.678;23.380;2022-08-19T10:39:31;5.30;;;3.83;;
24273;SDS011;12392;42.678;23.380;2022-08-19T10:41:58;4.60;;;4.20;;
24273;SDS011;12392;42.678;23.380;2022-08-19T10:44:24;8.02;;;4.57;;
24273;SDS011;12392;42.678;23.380;2022-08-19T10:46:51;5.20;;;4.20;;
24273;SDS011;12392;42.678;23.380;2022-08-19T10:49:17;6.03;;;4.18;;
24273;SDS011;12392;42.678;23.380;2022-08-19T10:51:44;10.38;;;4.90;;
24273;SDS011;12392;42.678;23.380;2022-08-19T10:54:28;6.35;;;4.35;;
24273;SDS011;12392;42.678;23.380;2022-08-19T10:57:13;6.72;;;4.07;;
24273;SDS011;12392;42.678;23.380;2022-08-19T10:59:40;5.28;;;4.43;;
24273;SDS011;12392;42.678;23.380;2022-08-19T11:02:07;5.22;;;4.60;;
24273;SDS011;12392;42.678;23.380;2022-08-19T11:04:35;5.43;;;4.07;;
24273;SDS011;12392;42.678;23.380;2022-08-19T11:07:04;7.00;;;4.80;;
24273;SDS011;12392;42.678;23.380;2022-08-19T11:09:31;4.63;;;3.80;;
24273;SDS011;12392;42.678;23.380;2022-08-19T11:12:01;9.25;;;4.50;;
24273;SDS011;12392;42.678;23.380;2022-08-19T11:14:28;12.50;;;4.90;;
24273;SDS011;12392;42.678;23.380;2022-08-19T11:16:55;6.75;;;4.57;;
24273;SDS011;12392;42.678;23.380;2022-08-19T11:19:22;6.18;;;4.50;;
24273;SDS011;12392;42.678;23.380;2022-08-19T11:21:49;6.10;;;4.43;;
24273;SDS011;12392;42.678;23.380;2022-08-19T11:24:17;5.35;;;4.20;;
24273;SDS011;12392;42.678;23.380;2022-08-19T11:26:45;8.82;;;4.35;;
24273;SDS011;12392;42.678;23.380;2022-08-19T11:29:11;5.63;;;5.03;;
24273;SDS011;12392;42.678;23.380;2022-08-19T11:31:39;10.95;;;4.57;;
24273;SDS011;12392;42.678;23.380;2022-08-19T11:34:06;10.25;;;4.22;;
24273;SDS011;12392;42.678;23.380;2022-08-19T11:36:34;6.18;;;4.97;;
24273;SDS011;12392;42.678;23.380;2022-08-19T11:39:04;8.65;;;4.78;;
24273;SDS011;12392;42.678;23.380;2022-08-19T11:41:31;7.15;;;4.57;;
24273;SDS011;12392;42.678;23.380;2022-08-19T11:43:57;12.00;;;4.85;;
24273;SDS011;12392;42.678;23.380;2022-08-19T11:46:23;6.55;;;4.38;;
24273;SDS011;12392;42.678;23.380;2022-08-19T11:48:51;7.30;;;4.38;;
24273;SDS011;12392;42.678;23.380;2022-08-19T11:51:18;8.45;;;4.95;;
24273;SDS011;12392;42.678;23.380;2022-08-19T11:53:46;10.32;;;4.93;;
24273;SDS011;12392;42.678;23.380;2022-08-19T11:56:14;7.32;;;4.70;;
24273;SDS011;12392;42.678;23.380;2022-08-19T11:58:40;6.28;;;4.80;;
24273;SDS011;12392;42.678;23.380;2022-08-19T12:01:09;7.68;;;4.88;;
24273;SDS011;12392;42.678;23.380;2022-08-19T12:03:41;7.70;;;4.82;;
24273;SDS011;12392;42.678;23.380;2022-08-19T12:06:08;8.73;;;4.47;;
24273;SDS011;12392;42.678;23.380;2022-08-19T12:08:35;11.13;;;4.85;;
24273;SDS011;12392;42.678;23.380;2022-08-19T12:11:01;8.48;;;4.80;;
24273;SDS011;12392;42.678;23.380;2022-08-19T12:13:28;4.78;;;4.28;;
24273;SDS011;12392;42.678;23.380;2022-08-19T12:15:55;7.45;;;4.63;;
24273;SDS011;12392;42.678;23.380;2022-08-19T12:18:21;8.93;;;4.90;;
24273;SDS011;12392;42.678;23.380;2022-08-19T12:20:47;5.63;;;4.80;;
24273;SDS011;12392;42.678;23.380;2022-08-19T12:23:16;6.20;;;4.90;;
24273;SDS011;12392;42.678;23.380;2022-08-19T12:25:46;7.50;;;4.65;;
24273;SDS011;12392;42.678;23.380;2022-08-19T12:28:17;8.77;;;5.50;;
24273;SDS011;12392;42.678;23.380;2022-08-19T12:30:46;9.32;;;5.05;;
24273;SDS011;12392;42.678;23.380;2022-08-19T12:33:12;9.10;;;5.25;;
24273;SDS011;12392;42.678;23.380;2022-08-19T12:35:39;7.72;;;6.30;;
24273;SDS011;12392;42.678;23.380;2022-08-19T12:38:07;11.52;;;4.60;;
24273;SDS011;12392;42.678;23.380;2022-08-19T12:40:33;14.45;;;5.28;;
24273;SDS011;12392;42.678;23.380;2022-08-19T12:42:58;8.38;;;4.95;;
24273;SDS011;12392;42.678;23.380;2022-08-19T12:45:24;6.88;;;5.00;;
24273;SDS011;12392;42.678;23.380;2022-08-19T12:47:50;6.70;;;4.57;;
24273;SDS011;12392;42.678;23.380;2022-08-19T12:50:18;7.25;;;5.18;;
24273;SDS011;12392;42.678;23.380;2022-08-19T12:52:44;7.63;;;4.57;;
24273;SDS011;12392;42.678;23.380;2022-08-19T12:55:10;6.30;;;4.95;;
24273;SDS011;12392;42.678;23.380;2022-08-19T12:57:37;9.98;;;5.13;;
24273;SDS011;12392;42.678;23.380;2022-08-19T13:00:07;4.80;;;4.40;;
24273;SDS011;12392;42.678;23.380;2022-08-19T13:02:43;8.20;;;5.10;;
24273;SDS011;12392;42.678;23.380;2022-08-19T13:05:11;10.02;;;4.68;;
24273;SDS011;12392;42.678;23.380;2022-08-19T13:07:40;6.43;;;5.00;;
24273;SDS011;12392;42.678;23.380;2022-08-19T13:10:11;6.15;;;4.80;;
24273;SDS011;12392;42.678;23.380;2022-08-19T13:12:40;8.57;;;4.70;;
24273;SDS011;12392;42.678;23.380;2022-08-19T13:15:06;10.15;;;5.00;;
24273;SDS011;12392;42.678;23.380;2022-08-19T13:17:33;7.78;;;4.43;;
24273;SDS011;12392;42.678;23.380;2022-08-19T13:19:59;7.13;;;4.95;;
24273;SDS011;12392;42.678;23.380;2022-08-19T13:22:25;5.90;;;4.72;;
24273;SDS011;12392;42.678;23.380;2022-08-19T13:24:52;5.15;;;4.40;;
24273;SDS011;12392;42.678;23.380;2022-08-19T13:27:17;7.95;;;5.15;;
24273;SDS011;12392;42.678;23.380;2022-08-19T13:29:43;8.90;;;4.95;;
24273;SDS011;12392;42.678;23.380;2022-08-19T13:32:30;6.60;;;5.10;;
24273;SDS011;12392;42.678;23.380;2022-08-19T13:35:15;10.57;;;4.93;;
24273;SDS011;12392;42.678;23.380;2022-08-19T13:37:41;8.25;;;5.25;;
24273;SDS011;12392;42.678;23.380;2022-08-19T13:40:08;9.15;;;5.20;;
24273;SDS011;12392;42.678;23.380;2022-08-19T13:42:37;6.30;;;4.75;;
24273;SDS011;12392;42.678;23.380;2022-08-19T13:45:07;6.43;;;5.05;;
24273;SDS011;12392;42.678;23.380;2022-08-19T13:47:33;8.07;;;5.40;;
24273;SDS011;12392;42.678;23.380;2022-08-19T13:50:00;6.32;;;5.25;;
24273;SDS011;12392;42.678;23.380;2022-08-19T13:52:28;7.25;;;5.10;;
24273;SDS011;12392;42.678;23.380;2022-08-19T13:54:54;11.57;;;5.65;;
24273;SDS011;12392;42.678;23.380;2022-08-19T13:57:20;7.60;;;5.40;;
24273;SDS011;12392;42.678;23.380;2022-08-19T13:59:45;14.52;;;5.93;;
24273;SDS011;12392;42.678;23.380;2022-08-19T14:02:11;9.45;;;5.25;;
24273;SDS011;12392;42.678;23.380;2022-08-19T14:04:37;6.88;;;4.80;;
24273;SDS011;12392;42.678;23.380;2022-08-19T14:07:03;7.97;;;5.10;;
24273;SDS011;12392;42.678;23.380;2022-08-19T14:09:29;4.97;;;4.47;;
24273;SDS011;12392;42.678;23.380;2022-08-19T14:11:55;11.57;;;5.68;;
24273;SDS011;12392;42.678;23.380;2022-08-19T14:14:21;9.68;;;5.65;;
24273;SDS011;12392;42.678;23.380;2022-08-19T14:16:47;7.03;;;5.10;;
24273;SDS011;12392;42.678;23.380;2022-08-19T14:19:13;7.82;;;4.90;;
24273;SDS011;12392;42.678;23.380;2022-08-19T14:21:39;8.48;;;4.50;;
24273;SDS011;12392;42.678;23.380;2022-08-19T14:24:06;8.00;;;5.32;;
24273;SDS011;12392;42.678;23.380;2022-08-19T14:26:33;9.30;;;5.13;;
24273;SDS011;12392;42.678;23.380;2022-08-19T14:28:59;8.98;;;4.95;;
24273;SDS011;12392;42.678;23.380;2022-08-19T14:31:26;7.53;;;4.95;;
24273;SDS011;12392;42.678;23.380;2022-08-19T14:33:52;8.30;;;5.32;;
24273;SDS011;12392;42.678;23.380;2022-08-19T14:36:18;9.55;;;4.80;;
24273;SDS011;12392;42.678;23.380;2022-08-19T14:38:45;9.65;;;5.20;;
24273;SDS011;12392;42.678;23.380;2022-08-19T14:41:19;6.80;;;5.13;;